To NAV CANADA Home Page Login to a new session Search on AWWS site Disclaimer Vers la page française équivalente Tips FAQ What's new on the site To the Forecasts and Observations / NOTAM section To "File a Flight Plan" website Publications and other links Update of the User's profile FIC Telephone Numbers My Weather Data Folder Route Weather Data Regional Weather Data Local Weather Data To the Forecasts and Observations / NOTAM section
Request Generated 10/19/2018 at 16:34:07 UTC . Weather information available at that time is displayed.

METAR/TAF

NATASHQUAN/QC    (show WxCam)

SPECI CYNA 191630Z AUTO 31010KT 2SM -SN SCT012 OVC019 M01/M02 A2980 RMK SLP092=
SPECI CYNA 191629Z AUTO 32010KT 2 1/4SM -SN SCT012 BKN019 OVC030 M01/M02 A2980 RMK SLP093=
SPECI CYNA 191623Z AUTO 31009KT 3SM -SN BKN012 OVC026 M01/M02 A2980 RMK SLP093=
SPECI CYNA 191622Z AUTO 31009KT 3SM -SN SCT012 BKN026 OVC032 M01/M02 A2980 RMK SLP092=
SPECI CYNA 191619Z AUTO 31010KT 2 1/2SM -SN SCT009 SCT014 BKN026 OVC032 M01/M02 A2980 RMK VIS VRB 1 1/2-3 SLP092=
SPECI CYNA 191608Z AUTO 32011KT 2 1/2SM -SN SCT009 BKN024 OVC031 M01/M02 A2979 RMK SLP091=
SPECI CYNA 191605Z AUTO 33009KT 2 1/2SM -SN FEW009 SCT012 BKN026 OVC033 M01/M02 A2979 RMK SLP091=
SPECI CYNA 191603Z AUTO 33009KT 2SM -SN SCT009 BKN026 OVC033 M01/M02 A2979 RMK SLP090=
METAR CYNA 191600Z AUTO 33009KT 2SM -SN SCT009 BKN024 OVC033 M01/M02 A2979 RMK ICG PAST HR SLP090=
SPECI CYNA 191534Z AUTO 33011KT 1 1/4SM -SN FEW008 BKN018 OVC025 M01/M02 A2979 RMK ICG PAST HR SLP090=
SPECI CYNA 191532Z AUTO 32011KT 1 1/4SM -SN FEW008 OVC018 M01/M02 A2979 RMK ICG INTMT SLP090=
SPECI CYNA 191517Z AUTO 32012KT 1SM -SN VV020 M01/M03 A2979 RMK ICG SLP089=
SPECI CYNA 191514Z AUTO 32009G15KT 1SM -SN OVC021 M01/M02 A2979 RMK SLP089=
METAR CYNA 191500Z AUTO 32013KT 1 1/2SM -SN FEW008 OVC021 M01/M03 A2978 RMK SLP088=
SPECI CYNA 191457Z AUTO 32012KT 1 1/4SM -SN FEW008 OVC019 M01/M02 A2978 RMK SLP087=
SPECI CYNA 191448Z AUTO 32012KT 1SM -SN OVC018 M01/M02 A2978 RMK SLP086=
SPECI CYNA 191425Z AUTO 33011KT 1 1/4SM -SN FEW009 OVC015 M01/M02 A2977 RMK SLP083=
METAR CYNA 191400Z AUTO 32010G15KT 3/4SM -SN VV014 M01/M03 A2977 RMK SLP082=

TAF CYNA 191338Z 1914/2002 32009KT 1SM -SN OVC020
BECMG 1914/1916 6SM -SN OVC025
FM191600 33010KT 6SM -SN OVC025 TEMPO 1916/1917 21/2SM -SN OVC015
FM191700 31010KT P6SM BKN030 TEMPO 1917/2002 BKN020
RMK FCST BASED ON AUTO OBS. NXT FCST BY 192000Z=
Your time UTC time
Weather data provided by Environment Canada and NAV CANADA